Time;durP1;ratioP1;P1;durP2;ratioP2;P2;SDS_P1;SDS_P2;PMS_P1;PMS_P2;Temp;Humidity;BMP_temperature;BMP_pressure;BME280_temperature;BME280_humidity;BME280_pressure;Samples;Min_cycle;Max_cycle;Signal;HPM_P1;HPM_P2
2022/08/17 00:01:20;;;;;;;9.93;5.50;;;;;;;23.86;65.72;100517.34;5092891;28;20543;-77
2022/08/17 00:03:48;;;;;;;8.25;5.57;;;;;;;23.79;65.38;100529.75;5074165;28;20796;-77
2022/08/17 00:06:22;;;;;;;9.68;5.40;;;;;;;23.80;65.28;100530.59;5065356;28;20052;-77
2022/08/17 00:08:50;;;;;;;6.85;5.43;;;;;;;23.77;65.44;100532.59;5029112;28;20174;-77
2022/08/17 00:11:20;;;;;;;13.00;5.53;;;;;;;23.69;66.10;100527.25;5090557;28;20047;-79
2022/08/17 00:13:56;;;;;;;7.18;5.32;;;;;;;23.73;65.49;100527.72;5066846;28;20474;-77
2022/08/17 00:16:30;;;;;;;5.82;5.10;;;;;;;23.66;65.45;100529.41;5071689;28;20070;-77
2022/08/17 00:18:57;;;;;;;8.23;5.43;;;;;;;23.64;65.49;100528.75;5074863;28;20101;-78
2022/08/17 00:21:25;;;;;;;8.48;5.97;;;;;;;23.51;66.26;100531.09;5074437;28;20047;-77
2022/08/17 00:23:54;;;;;;;8.65;5.97;;;;;;;23.45;65.85;100535.28;5070009;28;20055;-77
2022/08/17 00:26:21;;;;;;;9.73;6.15;;;;;;;23.28;66.73;100533.59;5088082;28;20098;-78
2022/08/17 00:28:48;;;;;;;9.48;5.82;;;;;;;22.95;68.28;100548.72;5088448;28;20059;-77
2022/08/17 00:31:15;;;;;;;9.90;6.18;;;;;;;22.48;70.16;100545.69;5075466;28;20092;-78
2022/08/17 00:33:44;;;;;;;9.88;5.93;;;;;;;22.28;71.73;100534.38;5096010;28;20453;-77
2022/08/17 00:36:12;;;;;;;10.25;5.82;;;;;;;22.38;72.32;100538.78;5081621;28;20652;-78
2022/08/17 00:38:42;;;;;;;12.40;5.80;;;;;;;22.61;70.78;100538.06;5096144;28;20056;-78
2022/08/17 00:41:12;;;;;;;8.98;6.25;;;;;;;22.69;70.41;100537.25;5088180;27;20040;-77
2022/08/17 00:43:43;;;;;;;8.18;6.20;;;;;;;22.74;69.93;100535.78;5065701;28;20052;-77
2022/08/17 00:46:15;;;;;;;8.52;5.95;;;;;;;22.78;70.14;100542.50;5067522;28;20530;-77
2022/08/17 00:48:49;;;;;;;9.95;5.68;;;;;;;22.75;70.28;100540.16;5092415;28;20047;-77
2022/08/17 00:51:19;;;;;;;8.88;6.20;;;;;;;22.68;70.36;100539.13;5094901;28;20071;-79
2022/08/17 00:53:55;;;;;;;10.60;6.60;;;;;;;22.37;72.34;100540.63;5057695;28;20067;-78
2022/08/17 00:56:29;;;;;;;9.48;6.30;;;;;;;21.78;75.10;100544.91;5094225;28;20044;-77
2022/08/17 00:58:58;;;;;;;12.48;6.72;;;;;;;21.52;77.13;100546.69;5082597;28;20047;-77
2022/08/17 01:01:28;;;;;;;9.88;6.57;;;;;;;21.88;76.07;100544.78;5087701;28;20093;-77
2022/08/17 01:03:59;;;;;;;12.20;6.60;;;;;;;22.11;74.63;100543.31;5083743;28;25243;-78
2022/08/17 01:06:27;;;;;;;11.67;6.57;;;;;;;22.03;74.54;100543.25;5084941;28;20105;-78
2022/08/17 01:08:58;;;;;;;10.27;5.78;;;;;;;21.94;74.52;100540.72;5078194;28;20765;-79
2022/08/17 01:11:29;;;;;;;11.55;6.93;;;;;;;21.53;76.74;100548.38;5048565;28;20068;-78
2022/08/17 01:13:56;;;;;;;12.53;6.20;;;;;;;21.52;77.23;100553.84;5074519;28;20057;-77
2022/08/17 01:16:26;;;;;;;12.77;6.88;;;;;;;21.50;77.42;100553.19;5088818;28;20118;-77
2022/08/17 01:18:58;;;;;;;11.77;6.55;;;;;;;21.35;78.13;100544.88;5083993;28;20048;-77
2022/08/17 01:21:31;;;;;;;9.30;6.90;;;;;;;21.26;77.99;100553.78;5088686;28;20039;-77
2022/08/17 01:24:02;;;;;;;9.93;6.63;;;;;;;21.44;77.04;100554.63;5077938;28;20180;-79
2022/08/17 01:26:31;;;;;;;10.85;6.97;;;;;;;21.69;76.06;100553.81;5085659;28;20106;-79
2022/08/17 01:28:58;;;;;;;9.48;6.90;;;;;;;21.87;74.62;100551.16;5083073;28;20044;-77
2022/08/17 01:31:30;;;;;;;10.23;6.88;;;;;;;21.99;74.06;100549.09;5086626;27;20491;-77
2022/08/17 01:34:01;;;;;;;9.93;6.70;;;;;;;22.17;72.99;100547.22;5084339;27;20047;-77
2022/08/17 01:36:32;;;;;;;11.10;6.85;;;;;;;22.05;72.87;100546.63;5079275;27;20047;-77
2022/08/17 01:39:01;;;;;;;8.95;6.82;;;;;;;21.83;74.15;100558.63;5087921;27;20080;-77
2022/08/17 01:41:31;;;;;;;12.63;7.03;;;;;;;21.56;75.14;100557.91;5102628;27;20101;-77
2022/08/17 01:44:06;;;;;;;8.02;6.53;;;;;;;21.34;76.39;100560.06;5094906;27;20548;-77
2022/08/17 01:46:36;;;;;;;11.45;7.40;;;;;;;21.14;76.94;100565.66;5104571;27;20071;-77
2022/08/17 01:49:10;;;;;;;10.95;7.07;;;;;;;21.03;77.67;100555.19;5104503;27;20048;-77
2022/08/17 01:51:37;;;;;;;10.15;7.18;;;;;;;21.28;76.41;100563.34;5081158;28;20097;-79
2022/08/17 01:54:14;;;;;;;11.55;7.55;;;;;;;21.40;75.16;100558.59;5083537;28;20048;-79
2022/08/17 01:56:57;;;;;;;9.88;6.63;;;;;;;21.42;74.62;100548.63;5083435;28;20078;-77
2022/08/17 01:59:27;;;;;;;7.50;6.60;;;;;;;21.26;75.39;100554.63;5087031;28;20113;-77
2022/08/17 02:01:54;;;;;;;10.07;7.32;;;;;;;21.18;76.13;100557.22;5071369;28;20060;-77
2022/08/17 02:04:23;;;;;;;9.48;6.68;;;;;;;21.49;75.21;100549.69;5077256;27;20097;-78
2022/08/17 02:06:51;;;;;;;9.75;6.47;;;;;;;21.63;74.28;100554.47;5086946;27;20051;-77
2022/08/17 02:09:23;;;;;;;10.68;6.40;;;;;;;21.65;73.52;100548.97;5086097;28;20113;-77
2022/08/17 02:11:50;;;;;;;12.88;6.90;;;;;;;21.82;72.82;100550.78;5084650;28;20121;-77
2022/08/17 02:14:17;;;;;;;8.88;6.75;;;;;;;21.92;72.30;100548.03;5056470;28;20054;-77
2022/08/17 02:16:45;;;;;;;9.65;6.95;;;;;;;22.06;71.58;100545.63;5079984;28;20117;-77
2022/08/17 02:19:18;;;;;;;11.43;6.75;;;;;;;22.10;71.60;100554.16;5098300;28;20097;-77
2022/08/17 02:21:48;;;;;;;10.33;6.73;;;;;;;21.95;71.75;100551.22;5070499;27;20124;-77
2022/08/17 02:24:19;;;;;;;12.75;6.90;;;;;;;21.84;72.60;100543.44;5061877;28;20301;-77
2022/08/17 02:26:59;;;;;;;9.82;7.25;;;;;;;21.84;72.67;100554.09;5083113;28;20105;-77
2022/08/17 02:29:29;;;;;;;13.00;7.20;;;;;;;21.89;72.10;100554.50;5081371;28;20048;-77
2022/08/17 02:31:58;;;;;;;10.15;6.88;;;;;;;21.75;72.48;100547.06;5084769;28;20055;-77
2022/08/17 02:34:26;;;;;;;11.50;6.45;;;;;;;21.70;72.99;100554.66;5109849;28;20047;-77
2022/08/17 02:36:54;;;;;;;11.38;6.95;;;;;;;21.49;72.61;100544.34;5082997;28;20130;-77
2022/08/17 02:39:21;;;;;;;12.25;6.78;;;;;;;21.53;72.47;100563.56;5097023;27;20047;-77
2022/08/17 02:42:01;;;;;;;9.85;6.93;;;;;;;21.61;71.76;100547.63;5091854;27;20050;-77
2022/08/17 02:44:31;;;;;;;12.73;6.72;;;;;;;21.62;71.84;100544.78;5113076;27;20549;-77
2022/08/17 02:46:59;;;;;;;11.23;6.63;;;;;;;21.52;72.47;100548.53;5086540;27;20501;-77
2022/08/17 02:49:28;;;;;;;8.85;6.40;;;;;;;21.58;71.48;100531.91;5081281;27;20040;-77
2022/08/17 02:51:56;;;;;;;11.15;7.03;;;;;;;21.51;71.31;100534.34;5072521;28;20498;-77
2022/08/17 02:54:29;;;;;;;9.95;6.40;;;;;;;21.56;71.60;100542.72;5070530;28;20064;-77
2022/08/17 02:57:01;;;;;;;9.70;6.35;;;;;;;21.58;71.25;100542.59;5085277;28;20043;-77
2022/08/17 02:59:37;;;;;;;11.02;6.60;;;;;;;21.61;71.29;100548.44;5075416;28;20694;-77
2022/08/17 03:02:05;;;;;;;13.50;6.57;;;;;;;21.62;70.81;100543.94;5085284;28;20693;-77
2022/08/17 03:04:33;;;;;;;13.95;6.93;;;;;;;21.42;71.55;100542.44;5078992;28;20078;-77
2022/08/17 03:06:59;;;;;;;10.32;6.38;;;;;;;21.38;72.00;100530.41;5085143;28;20048;-79
2022/08/17 03:09:28;;;;;;;12.38;7.32;;;;;;;21.11;72.91;100547.31;5085224;28;20052;-77
2022/08/17 03:11:55;;;;;;;10.45;7.07;;;;;;;20.76;75.00;100548.06;5093467;27;20403;-77
2022/08/17 03:14:25;;;;;;;8.57;6.65;;;;;;;20.57;75.77;100548.16;5095479;28;20051;-78
2022/08/17 03:16:52;;;;;;;9.20;6.93;;;;;;;20.67;76.33;100535.63;5088859;28;20098;-78
2022/08/17 03:19:19;;;;;;;8.57;6.82;;;;;;;20.74;76.43;100539.38;5089231;28;20040;-78
2022/08/17 03:21:46;;;;;;;10.27;7.72;;;;;;;20.73;75.20;100545.72;5082053;27;20047;-77
2022/08/17 03:24:13;;;;;;;9.57;7.38;;;;;;;20.60;76.10;100538.06;5116256;27;20121;-79
2022/08/17 03:26:40;;;;;;;14.32;7.68;;;;;;;20.51;76.71;100530.94;5102954;27;20551;-77
2022/08/17 03:29:08;;;;;;;11.02;6.82;;;;;;;20.63;76.92;100537.75;5086583;27;20044;-77
2022/08/17 03:31:36;;;;;;;11.48;7.00;;;;;;;20.75;75.81;100544.56;5088994;27;20043;-77
2022/08/17 03:34:03;;;;;;;11.13;7.25;;;;;;;20.75;74.99;100541.06;5087835;27;20052;-79
2022/08/17 03:36:38;;;;;;;12.13;7.18;;;;;;;20.84;74.88;100540.19;5086736;27;20496;-77
2022/08/17 03:39:06;;;;;;;8.48;6.85;;;;;;;20.84;74.75;100543.66;5087085;27;20541;-77
2022/08/17 03:41:33;;;;;;;10.90;7.30;;;;;;;20.68;75.43;100540.81;5087897;28;20055;-77
2022/08/17 03:44:04;;;;;;;12.73;8.32;;;;;;;20.38;77.16;100536.63;5094371;27;20048;-77
2022/08/17 03:57:38;;;;;;;13.35;9.95;;;;;;;19.74;80.95;100533.84;5088393;28;20062;-77
2022/08/17 04:00:12;;;;;;;13.18;9.13;;;;;;;19.84;81.05;100544.47;5084599;28;20048;-77
2022/08/17 04:02:42;;;;;;;12.05;8.90;;;;;;;20.27;78.66;100539.44;5103976;27;20061;-77
2022/08/17 04:05:11;;;;;;;13.18;8.73;;;;;;;20.69;76.57;100539.84;5096543;27;20043;-78
2022/08/17 04:07:39;;;;;;;11.35;8.25;;;;;;;20.83;75.19;100539.34;5084383;27;20036;-77
2022/08/17 04:10:08;;;;;;;11.90;8.57;;;;;;;20.87;74.83;100539.88;5083525;27;20399;-77
2022/08/17 04:12:48;;;;;;;12.00;8.85;;;;;;;20.64;75.14;100542.09;5086743;27;20050;-77
2022/08/17 04:15:17;;;;;;;10.48;8.25;;;;;;;20.44;76.05;100552.97;5073753;27;20044;-77
2022/08/17 04:17:45;;;;;;;12.38;8.23;;;;;;;20.59;76.02;100539.03;5086100;28;20123;-79
2022/08/17 04:20:14;;;;;;;12.48;8.27;;;;;;;20.85;75.25;100556.00;5083552;28;20047;-77
2022/08/17 04:22:54;;;;;;;16.85;9.70;;;;;;;20.81;75.44;100551.97;5074211;28;20040;-78
2022/08/17 04:25:21;;;;;;;11.15;7.90;;;;;;;20.84;75.14;100562.31;5084547;28;20445;-78
2022/08/17 04:27:48;;;;;;;10.02;8.00;;;;;;;20.82;75.11;100564.31;5088069;28;20068;-78
2022/08/17 04:30:17;;;;;;;11.45;8.50;;;;;;;20.88;75.33;100557.53;5083610;28;20417;-79
2022/08/17 04:32:54;;;;;;;12.23;8.88;;;;;;;20.95;74.94;100563.97;5086865;28;20044;-77
2022/08/17 04:35:26;;;;;;;15.68;9.57;;;;;;;20.98;75.07;100570.81;5085711;27;20124;-79
2022/08/17 04:37:55;;;;;;;10.00;8.43;;;;;;;21.10;74.82;100562.44;5077178;27;20058;-77
2022/08/17 04:43:11;;;;;;;11.98;8.75;;;;;;;21.27;74.02;100564.31;5103664;27;20066;-78
2022/08/17 04:45:49;;;;;;;9.73;8.38;;;;;;;21.31;73.83;100570.19;5091808;27;20055;-79
2022/08/17 04:48:17;;;;;;;10.32;8.50;;;;;;;21.46;73.52;100573.16;5091178;28;20092;-78
2022/08/17 04:50:49;;;;;;;12.65;8.15;;;;;;;21.44;74.29;100575.13;5082196;28;20076;-78
2022/08/17 04:53:18;;;;;;;11.00;7.72;;;;;;;21.53;73.91;100577.72;5066290;28;20064;-78
2022/08/17 04:55:45;;;;;;;11.55;8.68;;;;;;;21.58;73.86;100571.94;5084910;28;20164;-78
2022/08/17 04:58:11;;;;;;;12.95;8.50;;;;;;;21.68;73.44;100580.69;5088417;28;20048;-78
2022/08/17 05:00:39;;;;;;;14.55;8.32;;;;;;;21.78;72.69;100576.09;5084204;28;20441;-78
2022/08/17 05:03:06;;;;;;;11.00;8.75;;;;;;;21.85;72.46;100578.00;5087485;28;20514;-78
2022/08/17 05:05:36;;;;;;;12.93;9.73;;;;;;;21.99;71.98;100584.63;5088760;28;20044;-77
2022/08/17 05:08:06;;;;;;;11.82;9.52;;;;;;;22.13;71.42;100581.41;5085792;28;20044;-78
2022/08/17 05:10:35;;;;;;;11.63;8.90;;;;;;;22.22;71.25;100582.28;5086125;28;20519;-78
2022/08/17 05:13:09;;;;;;;10.98;8.50;;;;;;;22.29;71.89;100586.81;5086073;28;20047;-78
2022/08/17 05:15:38;;;;;;;13.20;9.20;;;;;;;22.47;71.51;100586.75;5087027;28;20058;-78
2022/08/17 05:18:07;;;;;;;10.68;8.45;;;;;;;22.62;70.91;100587.81;5081064;28;20051;-78
2022/08/17 05:20:37;;;;;;;10.98;8.52;;;;;;;22.80;69.72;100591.28;5097565;27;20048;-78
2022/08/17 05:23:06;;;;;;;13.63;9.57;;;;;;;22.59;71.39;100595.31;5077029;28;20066;-77
2022/08/17 05:25:35;;;;;;;12.43;9.00;;;;;;;22.98;69.42;100601.88;5075239;28;20040;-77
2022/08/17 05:28:05;;;;;;;11.15;9.38;;;;;;;23.17;67.97;100606.94;5084743;28;20219;-78
2022/08/17 05:30:35;;;;;;;14.05;9.60;;;;;;;22.83;68.14;100597.31;5086444;28;20044;-77
2022/08/17 05:33:06;;;;;;;11.82;9.35;;;;;;;23.02;67.59;100597.84;5085716;28;20048;-77
2022/08/17 05:35:39;;;;;;;13.50;9.43;;;;;;;23.22;67.82;100609.13;5088995;28;20040;-77
2022/08/17 05:38:06;;;;;;;;;;;;;;;23.41;67.59;100605.31;5086283;28;20071;-78
2022/08/17 05:40:41;;;;;;;13.60;9.45;;;;;;;23.31;68.56;100615.34;5066667;27;19924;-78
2022/08/17 05:43:12;;;;;;;10.50;9.45;;;;;;;23.62;66.88;100611.06;5063491;28;20063;-77
2022/08/17 05:45:45;;;;;;;13.27;10.40;;;;;;;23.07;68.44;100616.09;5079691;28;20122;-79
2022/08/17 05:48:11;;;;;;;17.08;10.27;;;;;;;23.13;68.11;100610.13;5085765;28;20042;-78
2022/08/17 05:50:55;;;;;;;15.38;11.10;;;;;;;23.42;68.44;100613.22;5083800;28;20603;-78
2022/08/17 05:53:28;;;;;;;13.18;10.60;;;;;;;23.53;65.79;100618.25;5078258;27;20048;-78
2022/08/17 05:56:08;;;;;;;15.10;10.40;;;;;;;24.21;63.89;100618.78;5063459;28;20079;-78
2022/08/17 05:58:48;;;;;;;12.23;9.80;;;;;;;24.39;65.59;100623.91;5052485;28;20041;-78
2022/08/17 06:01:27;;;;;;;14.07;11.23;;;;;;;24.60;64.23;100624.22;5058527;28;20414;-79
2022/08/17 06:04:10;;;;;;;19.98;9.85;;;;;;;25.05;61.93;100628.09;5065935;28;20048;-77
2022/08/17 06:06:43;;;;;;;11.90;9.60;;;;;;;24.97;63.20;100630.81;5066954;28;20083;-79
2022/08/17 06:09:27;;;;;;;13.70;9.30;;;;;;;24.79;64.15;100625.66;5072743;27;20043;-78
2022/08/17 06:11:59;;;;;;;14.70;9.73;;;;;;;25.18;62.85;100631.88;5079159;27;20514;-77
2022/08/17 06:14:40;;;;;;;16.75;9.27;;;;;;;25.76;61.61;100633.19;5084942;27;20044;-78
2022/08/17 06:17:12;;;;;;;15.80;10.10;;;;;;;26.02;59.63;100627.44;5082693;27;20130;-78
2022/08/17 06:19:45;;;;;;;16.05;9.52;;;;;;;26.26;59.38;100639.84;5071162;28;20094;-79
2022/08/17 06:22:18;;;;;;;15.32;9.52;;;;;;;26.39;58.98;100634.66;5075600;28;20139;-78
2022/08/17 06:24:55;;;;;;;12.75;9.15;;;;;;;26.37;59.22;100629.50;5066365;28;20053;-78
2022/08/17 06:27:29;;;;;;;12.88;9.95;;;;;;;26.86;57.89;100634.34;5082497;28;20043;-78
2022/08/17 06:30:08;;;;;;;12.13;9.27;;;;;;;27.25;56.80;100631.28;5084541;28;20044;-78
2022/08/17 06:32:36;;;;;;;18.20;10.35;;;;;;;27.47;56.10;100633.88;5087045;28;20154;-79
2022/08/17 06:35:06;;;;;;;15.82;10.35;;;;;;;27.03;55.14;100628.56;5085262;28;20048;-78
2022/08/17 06:38:00;;;;;;;11.88;9.05;;;;;;;26.98;55.08;100628.28;5079855;28;20077;-78
2022/08/17 06:40:49;;;;;;;13.20;9.52;;;;;;;27.36;53.46;100628.09;5065234;28;20051;-79
2022/08/17 06:43:31;;;;;;;15.25;10.60;;;;;;;27.42;52.32;100625.47;5068429;28;20045;-77
2022/08/17 06:46:06;;;;;;;19.23;9.30;;;;;;;28.35;51.21;100630.72;5088963;27;20064;-77
2022/08/17 06:48:40;;;;;;;10.65;9.50;;;;;;;27.65;54.54;100628.03;5115291;27;20039;-78
2022/08/17 06:51:14;;;;;;;12.65;9.27;;;;;;;27.92;53.12;100627.25;5079226;28;20052;-78
2022/08/17 06:53:47;;;;;;;15.15;9.63;;;;;;;28.20;53.01;100629.16;5082530;28;20101;-77
2022/08/17 06:56:25;;;;;;;12.80;9.95;;;;;;;27.91;51.54;100627.44;5092027;28;20044;-78
2022/08/17 06:58:57;;;;;;;16.67;9.27;;;;;;;27.99;51.04;100620.06;5086097;28;20040;-77
2022/08/17 07:01:28;;;;;;;16.80;9.27;;;;;;;27.75;52.42;100633.13;5090259;28;20042;-78
2022/08/17 07:04:04;;;;;;;17.00;9.60;;;;;;;28.39;51.69;100632.00;5090728;28;20136;-78
2022/08/17 07:06:37;;;;;;;18.80;10.23;;;;;;;28.93;49.22;100640.25;5091325;28;20503;-79
2022/08/17 07:09:08;;;;;;;15.32;9.35;;;;;;;29.36;49.78;100640.84;5086827;28;20093;-79
2022/08/17 07:11:40;;;;;;;15.52;8.77;;;;;;;29.73;49.29;100644.88;5072175;28;20040;-78
2022/08/17 07:14:18;;;;;;;13.88;8.48;;;;;;;30.18;45.11;100640.56;5079403;28;20047;-77
2022/08/17 07:16:49;;;;;;;12.45;8.52;;;;;;;30.22;43.79;100640.97;5084176;27;20134;-77
2022/08/17 07:19:19;;;;;;;14.02;9.00;;;;;;;29.87;45.92;100637.63;5098165;27;20462;-79
2022/08/17 07:21:54;;;;;;;17.48;8.35;;;;;;;30.43;44.66;100625.34;5089531;28;20075;-77
2022/08/17 07:24:36;;;;;;;12.90;7.93;;;;;;;30.23;42.61;100632.63;5086312;28;20504;-77
2022/08/17 07:27:06;;;;;;;11.50;7.40;;;;;;;31.32;40.42;100624.63;5089933;28;20054;-77
2022/08/17 07:29:42;;;;;;;15.15;7.70;;;;;;;31.24;43.08;100628.44;5085729;28;20776;-77
2022/08/17 07:32:11;;;;;;;14.00;8.48;;;;;;;30.80;44.20;100623.81;5087095;28;20071;-78
2022/08/17 07:35:16;;;;;;;10.30;8.70;;;;;;;31.36;45.83;100628.56;5088435;27;20058;-77
2022/08/17 07:37:44;;;;;;;11.68;8.20;;;;;;;32.16;43.98;100618.84;5069613;28;20052;-78
2022/08/17 07:40:28;;;;;;;11.80;8.05;;;;;;;31.95;43.63;100624.66;5071971;28;20040;-77
2022/08/17 07:43:21;;;;;;;11.93;5.53;;;;;;;32.39;38.57;100629.06;5093509;28;20044;-78
2022/08/17 07:48:42;;;;;;;14.27;8.05;;;;;;;32.33;39.75;100634.38;5084986;28;20053;-78
2022/08/17 07:51:17;;;;;;;12.48;7.03;;;;;;;32.39;42.37;100635.34;5085894;28;20048;-77
2022/08/17 07:53:45;;;;;;;10.00;6.75;;;;;;;32.03;40.75;100643.38;5064203;28;20403;-78
2022/08/17 07:56:32;;;;;;;12.23;6.70;;;;;;;32.63;40.31;100637.19;5062991;28;20095;-78
2022/08/17 07:59:16;;;;;;;8.88;6.53;;;;;;;33.01;37.56;100636.13;5063342;28;20048;-79
2022/08/17 08:01:48;;;;;;;8.20;6.15;;;;;;;32.78;38.69;100644.97;5067035;28;20044;-79
2022/08/17 08:04:27;;;;;;;8.20;6.38;;;;;;;32.96;39.36;100638.72;5083197;28;20203;-76
2022/08/17 08:06:58;;;;;;;11.80;5.63;;;;;;;33.28;40.62;100640.19;5091335;28;20043;-77
2022/08/17 08:09:34;;;;;;;10.80;6.13;;;;;;;32.78;40.35;100644.97;5087478;28;20047;-77
2022/08/17 08:12:25;;;;;;;11.13;5.90;;;;;;;31.96;39.14;100642.59;5091895;27;20036;-76
2022/08/17 08:14:57;;;;;;;9.52;6.20;;;;;;;32.84;40.03;100637.81;5081806;27;20131;-76
2022/08/17 08:17:36;;;;;;;10.55;6.38;;;;;;;33.08;38.83;100634.16;5063781;28;20094;-76
2022/08/17 08:20:08;;;;;;;14.35;7.63;;;;;;;33.44;39.63;100636.84;5085096;27;20131;-76
2022/08/17 08:22:49;;;;;;;10.95;6.55;;;;;;;34.04;37.60;100634.03;5071656;28;20045;-78
2022/08/17 08:25:45;;;;;;;10.63;7.00;;;;;;;33.30;37.60;100637.25;5074629;28;20388;-76
2022/08/17 08:28:28;;;;;;;9.48;7.45;;;;;;;33.31;39.89;100634.28;5083223;28;20040;-76
2022/08/17 08:31:08;;;;;;;9.70;7.47;;;;;;;33.84;37.41;100641.69;5083540;28;20102;-76
2022/08/17 08:33:55;;;;;;;12.18;6.68;;;;;;;33.64;38.12;100644.72;5090407;28;20093;-76
2022/08/17 08:36:38;;;;;;;10.00;5.82;;;;;;;34.07;37.85;100644.47;5085279;28;20044;-76
2022/08/17 08:39:15;;;;;;;10.32;6.22;;;;;;;34.13;35.44;100641.66;5067598;28;20128;-77
2022/08/17 08:41:48;;;;;;;12.02;5.30;;;;;;;34.68;36.26;100644.84;5065412;28;20044;-76
2022/08/17 08:47:30;;;;;;;15.43;5.93;;;;;;;34.17;34.65;100652.91;5084616;27;20048;-76
2022/08/17 08:50:11;;;;;;;6.75;4.65;;;;;;;34.90;35.52;100653.22;5083702;27;20545;-77
2022/08/17 08:52:55;;;;;;;7.82;5.20;;;;;;;34.79;33.50;100647.78;5078237;27;20040;-77
2022/08/17 08:55:33;;;;;;;5.97;4.72;;;;;;;35.35;32.16;100652.50;5083053;28;20044;-76
2022/08/17 08:58:05;;;;;;;8.88;5.00;;;;;;;35.70;34.26;100660.56;5090711;27;20055;-77
2022/08/17 09:00:43;;;;;;;8.45;4.82;;;;;;;35.51;31.05;100658.03;5083968;28;20048;-76
2022/08/17 09:03:45;;;;;;;5.88;4.40;;;;;;;35.86;32.63;100662.47;5084702;28;20052;-76
2022/08/17 09:06:24;;;;;;;5.45;3.50;;;;;;;36.41;32.43;100655.22;5059799;28;20036;-76
2022/08/17 09:09:10;;;;;;;6.50;4.03;;;;;;;36.72;34.18;100661.13;5085898;28;20051;-77
2022/08/17 09:11:51;;;;;;;5.22;3.90;;;;;;;36.32;32.56;100654.00;5075556;27;20044;-76
2022/08/17 09:17:11;;;;;;;9.90;3.53;;;;;;;37.04;30.48;100651.19;5085281;27;20043;-77
2022/08/17 09:19:47;;;;;;;6.88;3.13;;;;;;;37.32;29.76;100652.88;5072231;27;20466;-76
2022/08/17 09:22:29;;;;;;;9.50;3.30;;;;;;;37.42;27.01;100647.53;5065928;28;20064;-75
2022/08/17 09:25:08;;;;;;;10.70;3.25;;;;;;;37.69;28.05;100644.81;5056387;28;20044;-77
2022/08/17 09:27:50;;;;;;;4.78;3.60;;;;;;;37.91;27.33;100646.38;5065064;28;20048;-75
2022/08/17 09:30:19;;;;;;;3.92;2.78;;;;;;;37.53;29.21;100647.41;5072134;28;20051;-75
2022/08/17 09:32:53;;;;;;;9.68;3.17;;;;;;;37.04;27.55;100643.81;5061867;28;20047;-75
2022/08/17 09:35:25;;;;;;;8.02;2.78;;;;;;;37.68;27.54;100645.88;5082843;28;20043;-75
2022/08/17 09:38:02;;;;;;;6.53;2.95;;;;;;;37.21;27.58;100630.09;5085418;28;20048;-76
2022/08/17 09:40:34;;;;;;;5.70;2.85;;;;;;;37.29;26.42;100632.34;5083543;28;20085;-76
2022/08/17 09:43:02;;;;;;;;;;;;;;;37.36;26.49;100627.47;5084881;27;20097;-75
2022/08/17 09:45:37;;;;;;;6.55;3.17;;;;;;;37.34;25.25;100634.31;5057473;28;19921;-74
2022/08/17 09:48:16;;;;;;;10.38;2.88;;;;;;;37.61;26.93;100623.38;5063755;28;20048;-75
2022/08/17 09:50:59;;;;;;;4.85;2.50;;;;;;;37.39;27.22;100628.91;5087451;28;20048;-76
2022/08/17 09:53:26;;;;;;;4.72;2.55;;;;;;;36.72;27.81;100631.91;5055781;28;20040;-76
2022/08/17 09:56:08;;;;;;;5.93;2.70;;;;;;;37.12;27.45;100628.88;5069769;28;20060;-76
2022/08/17 09:58:50;;;;;;;3.75;2.90;;;;;;;36.55;25.55;100631.91;5075702;28;20044;-75
2022/08/17 10:01:23;;;;;;;;;;;;;;;36.27;29.75;100621.16;5065161;28;20102;-75
2022/08/17 10:04:11;;;;;;;9.20;2.55;;;;;;;36.78;26.12;100635.53;5072355;28;19920;-75
2022/08/17 10:06:53;;;;;;;3.78;2.40;;;;;;;36.25;26.39;100620.56;5085479;28;20044;-74
2022/08/17 10:09:35;;;;;;;4.22;2.28;;;;;;;36.52;25.91;100617.94;5082656;28;20546;-74
2022/08/17 10:12:19;;;;;;;3.08;2.22;;;;;;;36.75;28.31;100611.44;5084749;28;20044;-75
2022/08/17 10:14:59;;;;;;;7.78;2.63;;;;;;;36.96;25.43;100605.13;5065475;28;20074;-74
2022/08/17 10:17:32;;;;;;;5.65;2.80;;;;;;;37.56;25.86;100613.22;5064766;28;20048;-74
2022/08/17 10:20:06;;;;;;;4.55;2.60;;;;;;;37.88;24.11;100619.50;5087901;27;20048;-74
2022/08/17 10:28:13;;;;;;;4.47;2.55;;;;;;;37.32;24.78;100603.66;5087560;28;20043;-74
2022/08/17 10:30:47;;;;;;;6.68;2.53;;;;;;;37.48;27.71;100608.19;5087913;28;20098;-74
2022/08/17 10:33:17;;;;;;;2.95;2.40;;;;;;;37.92;23.15;100603.38;5090268;28;20039;-74
2022/08/17 10:35:51;;;;;;;6.25;2.50;;;;;;;36.91;26.66;100597.72;5085266;28;20051;-74
2022/08/17 10:38:30;;;;;;;7.10;2.47;;;;;;;36.90;24.43;100606.16;5087235;28;20488;-74
2022/08/17 10:41:01;;;;;;;4.03;2.25;;;;;;;36.14;24.88;100607.03;5076673;28;20069;-74
2022/08/17 10:43:34;;;;;;;;;;;;;;;35.64;26.00;100603.19;5067090;28;20049;-74
2022/08/17 10:46:13;;;;;;;3.72;2.45;;;;;;;35.54;25.46;100605.72;5068128;28;19920;-73
2022/08/17 10:48:41;;;;;;;2.83;2.17;;;;;;;35.19;26.24;100610.50;5066921;28;20041;-74
2022/08/17 10:51:11;;;;;;;5.55;2.78;;;;;;;34.77;27.06;100598.19;5068791;28;20044;-74
2022/08/17 10:54:00;;;;;;;5.38;2.47;;;;;;;34.36;28.59;100604.63;5076664;28;20113;-73
2022/08/17 10:56:42;;;;;;;4.20;2.70;;;;;;;34.59;28.17;100596.44;5085483;28;20040;-73
2022/08/17 10:59:09;;;;;;;10.32;3.10;;;;;;;34.04;28.17;100596.78;5087375;28;20452;-73
2022/08/17 11:02:15;;;;;;;7.40;2.72;;;;;;;33.79;29.43;100606.22;5088209;28;20047;-73
2022/08/17 11:05:00;;;;;;;4.22;2.40;;;;;;;34.28;27.79;100596.81;5010210;28;20433;-75
2022/08/17 11:07:51;;;;;;;5.47;2.63;;;;;;;34.62;27.29;100594.06;5023012;28;20048;-75
2022/08/17 11:10:40;;;;;;;3.78;2.40;;;;;;;34.69;28.74;100600.22;5070788;28;20142;-75
2022/08/17 11:13:16;;;;;;;5.50;2.35;;;;;;;34.03;28.67;100597.84;5103848;28;20040;-75
2022/08/17 11:15:57;;;;;;;6.40;2.53;;;;;;;34.23;28.18;100595.63;5105444;27;20517;-75
2022/08/17 11:18:40;;;;;;;7.23;2.73;;;;;;;34.49;29.00;100586.13;5114831;27;20074;-75
2022/08/17 11:21:24;;;;;;;5.00;2.30;;;;;;;34.85;26.47;100584.19;5090197;28;20056;-75
2022/08/17 11:24:15;;;;;;;6.03;2.50;;;;;;;34.83;29.54;100589.03;5074491;28;20047;-75
2022/08/17 11:26:47;;;;;;;5.00;2.70;;;;;;;34.00;29.11;100590.13;5094716;28;20043;-75
2022/08/17 11:29:22;;;;;;;5.93;2.70;;;;;;;34.16;29.87;100588.66;5090319;28;20492;-75
2022/08/17 11:32:02;;;;;;;10.02;2.70;;;;;;;34.36;30.36;100591.84;5074830;28;20070;-76
2022/08/17 11:34:31;;;;;;;6.03;2.90;;;;;;;34.31;30.02;100597.16;5098887;28;20043;-75
2022/08/17 11:37:25;;;;;;;4.15;2.72;;;;;;;34.56;29.61;100586.81;5084416;28;20047;-73
2022/08/17 11:40:14;;;;;;;7.28;2.90;;;;;;;34.84;30.59;100590.72;5072395;28;20168;-74
2022/08/17 11:43:26;;;;;;;7.20;3.33;;;;;;;34.40;28.12;100579.41;5081820;27;20048;-73
2022/08/17 11:46:13;;;;;;;5.53;3.00;;;;;;;33.51;28.56;100595.97;5055347;28;20063;-73
2022/08/17 11:51:49;;;;;;;;;;;;;;;34.10;28.79;100586.84;5078270;28;20434;-73
2022/08/17 11:54:39;;;;;;;5.32;2.97;;;;;;;34.11;28.33;100583.06;5084517;27;19921;-74
2022/08/17 11:57:47;;;;;;;3.67;3.22;;;;;;;34.48;27.68;100583.66;5084956;28;20059;-75
2022/08/17 12:00:51;;;;;;;6.25;3.22;;;;;;;34.96;26.45;100580.59;5047121;28;20052;-75
2022/08/17 12:03:43;;;;;;;3.47;2.55;;;;;;;35.26;26.77;100577.63;5065218;28;20545;-77
2022/08/17 12:06:28;;;;;;;5.35;2.70;;;;;;;35.27;29.09;100579.28;5085483;28;20485;-75
2022/08/17 12:09:07;;;;;;;5.82;2.53;;;;;;;35.57;26.15;100569.75;5077038;27;20154;-75
2022/08/17 12:11:43;;;;;;;7.90;3.17;;;;;;;35.87;27.62;100572.19;5086655;27;20160;-77
2022/08/17 12:14:17;;;;;;;5.78;2.70;;;;;;;35.86;28.12;100565.06;5065485;28;20066;-75
2022/08/17 12:16:45;;;;;;;9.00;2.88;;;;;;;35.98;28.41;100574.00;5085603;28;20127;-75
2022/08/17 12:19:22;;;;;;;6.03;2.67;;;;;;;35.98;28.20;100578.63;5084096;27;20081;-76
2022/08/17 12:21:58;;;;;;;5.95;2.97;;;;;;;36.14;28.88;100577.00;5074910;28;20048;-75
2022/08/17 12:24:49;;;;;;;4.93;2.80;;;;;;;35.95;27.09;100565.50;5075305;28;20032;-75
2022/08/17 12:27:23;;;;;;;5.33;3.40;;;;;;;36.39;27.02;100570.00;5086072;28;20132;-73